Terminal Aerodrome Forecast
Issued by NWS Flagstaff, AZ

Home | Current Version | Previous Version | Text Only | Print | Product List | Glossary On
Versions: 1 2 3 4 5 6 7 8 9 10 11 12 13 14 15 16 17
995
FTUS45 KFGZ 281721
TAFINW
TAF
KINW 281721Z 2818/2918 33017G24KT P6SM VCSH SCT022 BKN030
      TEMPO 2818/2820 6SM -SHRA BKN022
     FM282000 33018G27KT P6SM BKN060
     FM290400 28016G25KT P6SM SKC=

USA.gov is the U.S. government's official web portal to all federal, state and local government web resources and services.